sensor_id;sensor_type;location;lat;lon;timestamp;P1;durP1;ratioP1;P2;durP2;ratioP2
9775;SDS011;4927;52.472;13.108;2022-09-20T00:03:16;3.00;;;1.47;;
9775;SDS011;4927;52.472;13.108;2022-09-20T00:08:22;2.50;;;1.30;;
9775;SDS011;4927;52.472;13.108;2022-09-20T00:13:28;2.10;;;1.40;;
9775;SDS011;4927;52.472;13.108;2022-09-20T00:18:35;1.37;;;1.37;;
9775;SDS011;4927;52.472;13.108;2022-09-20T00:23:41;1.27;;;1.27;;
9775;SDS011;4927;52.472;13.108;2022-09-20T00:28:47;1.37;;;1.27;;
9775;SDS011;4927;52.472;13.108;2022-09-20T00:33:54;0.90;;;0.90;;
9775;SDS011;4927;52.472;13.108;2022-09-20T00:39:08;1.13;;;1.13;;
9775;SDS011;4927;52.472;13.108;2022-09-20T00:49:31;1.70;;;1.20;;
9775;SDS011;4927;52.472;13.108;2022-09-20T00:54:37;1.40;;;1.30;;
9775;SDS011;4927;52.472;13.108;2022-09-20T00:59:44;1.80;;;1.30;;
9775;SDS011;4927;52.472;13.108;2022-09-20T01:05:29;1.53;;;1.33;;
9775;SDS011;4927;52.472;13.108;2022-09-20T01:10:35;1.70;;;1.30;;
9775;SDS011;4927;52.472;13.108;2022-09-20T01:15:42;1.67;;;1.20;;
9775;SDS011;4927;52.472;13.108;2022-09-20T01:20:47;1.50;;;1.50;;
9775;SDS011;4927;52.472;13.108;2022-09-20T01:26:08;1.40;;;1.30;;
9775;SDS011;4927;52.472;13.108;2022-09-20T01:31:32;1.40;;;1.30;;
9775;SDS011;4927;52.472;13.108;2022-09-20T01:36:40;1.60;;;1.00;;
9775;SDS011;4927;52.472;13.108;2022-09-20T01:41:57;1.40;;;1.30;;
9775;SDS011;4927;52.472;13.108;2022-09-20T01:47:27;0.90;;;0.90;;
9775;SDS011;4927;52.472;13.108;2022-09-20T02:03:29;2.77;;;1.33;;
9775;SDS011;4927;52.472;13.108;2022-09-20T02:08:50;1.70;;;1.20;;
9775;SDS011;4927;52.472;13.108;2022-09-20T02:14:04;1.30;;;1.20;;
9775;SDS011;4927;52.472;13.108;2022-09-20T02:19:27;3.90;;;1.30;;
9775;SDS011;4927;52.472;13.108;2022-09-20T02:24:38;3.40;;;1.23;;
9775;SDS011;4927;52.472;13.108;2022-09-20T02:35:23;1.30;;;1.30;;
9775;SDS011;4927;52.472;13.108;2022-09-20T02:41:03;1.80;;;1.70;;
9775;SDS011;4927;52.472;13.108;2022-09-20T02:46:21;1.50;;;1.30;;
9775;SDS011;4927;52.472;13.108;2022-09-20T02:51:38;1.00;;;1.00;;
9775;SDS011;4927;52.472;13.108;2022-09-20T02:56:50;1.50;;;1.10;;
9775;SDS011;4927;52.472;13.108;2022-09-20T03:02:03;1.73;;;1.40;;
9775;SDS011;4927;52.472;13.108;2022-09-20T03:07:33;1.33;;;1.17;;
9775;SDS011;4927;52.472;13.108;2022-09-20T03:13:06;1.70;;;1.60;;
9775;SDS011;4927;52.472;13.108;2022-09-20T03:23:43;2.20;;;1.27;;
9775;SDS011;4927;52.472;13.108;2022-09-20T03:34:02;0.80;;;0.80;;
9775;SDS011;4927;52.472;13.108;2022-09-20T03:39:21;1.80;;;1.37;;
9775;SDS011;4927;52.472;13.108;2022-09-20T03:55:56;1.87;;;1.73;;
9775;SDS011;4927;52.472;13.108;2022-09-20T04:22:47;1.20;;;1.10;;
9775;SDS011;4927;52.472;13.108;2022-09-20T04:27:55;2.70;;;2.60;;
9775;SDS011;4927;52.472;13.108;2022-09-20T04:33:05;1.50;;;1.40;;
9775;SDS011;4927;52.472;13.108;2022-09-20T04:38:11;2.37;;;1.30;;
9775;SDS011;4927;52.472;13.108;2022-09-20T04:43:29;1.50;;;1.30;;
9775;SDS011;4927;52.472;13.108;2022-09-20T04:48:46;2.50;;;2.40;;
9775;SDS011;4927;52.472;13.108;2022-09-20T04:59:43;1.93;;;1.40;;
9775;SDS011;4927;52.472;13.108;2022-09-20T05:32:24;1.50;;;1.40;;
9775;SDS011;4927;52.472;13.108;2022-09-20T05:37:34;1.80;;;1.70;;
9775;SDS011;4927;52.472;13.108;2022-09-20T05:42:49;1.93;;;1.40;;
9775;SDS011;4927;52.472;13.108;2022-09-20T05:48:00;1.70;;;1.60;;
9775;SDS011;4927;52.472;13.108;2022-09-20T05:53:19;1.40;;;1.30;;
9775;SDS011;4927;52.472;13.108;2022-09-20T06:03:49;1.20;;;1.20;;
9775;SDS011;4927;52.472;13.108;2022-09-20T06:09:17;1.42;;;1.33;;
9775;SDS011;4927;52.472;13.108;2022-09-20T06:14:29;1.40;;;1.30;;
9775;SDS011;4927;52.472;13.108;2022-09-20T06:25:17;5.00;;;2.10;;
9775;SDS011;4927;52.472;13.108;2022-09-20T06:30:27;2.55;;;2.35;;
9775;SDS011;4927;52.472;13.108;2022-09-20T06:35:39;3.50;;;2.40;;
9775;SDS011;4927;52.472;13.108;2022-09-20T06:40:45;2.80;;;2.60;;
9775;SDS011;4927;52.472;13.108;2022-09-20T06:45:57;3.40;;;3.10;;
9775;SDS011;4927;52.472;13.108;2022-09-20T06:51:03;3.67;;;3.45;;
9775;SDS011;4927;52.472;13.108;2022-09-20T06:56:15;4.78;;;4.10;;
9775;SDS011;4927;52.472;13.108;2022-09-20T07:01:21;4.20;;;3.80;;
9775;SDS011;4927;52.472;13.108;2022-09-20T07:06:32;6.47;;;5.87;;
9775;SDS011;4927;52.472;13.108;2022-09-20T07:11:38;8.00;;;7.30;;
9775;SDS011;4927;52.472;13.108;2022-09-20T07:16:45;8.10;;;7.50;;
9775;SDS011;4927;52.472;13.108;2022-09-20T07:21:55;8.90;;;8.20;;
9775;SDS011;4927;52.472;13.108;2022-09-20T07:27:02;7.37;;;6.87;;
9775;SDS011;4927;52.472;13.108;2022-09-20T07:32:07;7.15;;;6.45;;
9775;SDS011;4927;52.472;13.108;2022-09-20T07:37:15;7.85;;;7.30;;
9775;SDS011;4927;52.472;13.108;2022-09-20T07:42:20;10.85;;;10.05;;
9775;SDS011;4927;52.472;13.108;2022-09-20T07:47:24;11.88;;;7.60;;
9775;SDS011;4927;52.472;13.108;2022-09-20T07:52:31;6.40;;;6.10;;
9775;SDS011;4927;52.472;13.108;2022-09-20T07:57:37;7.30;;;6.00;;
9775;SDS011;4927;52.472;13.108;2022-09-20T08:02:43;6.30;;;5.90;;
9775;SDS011;4927;52.472;13.108;2022-09-20T08:07:49;6.30;;;5.80;;
9775;SDS011;4927;52.472;13.108;2022-09-20T08:12:56;6.78;;;6.18;;
9775;SDS011;4927;52.472;13.108;2022-09-20T08:18:02;5.22;;;4.90;;
9775;SDS011;4927;52.472;13.108;2022-09-20T08:23:08;5.22;;;4.80;;
9775;SDS011;4927;52.472;13.108;2022-09-20T08:28:19;5.60;;;5.20;;
9775;SDS011;4927;52.472;13.108;2022-09-20T08:33:25;7.05;;;5.00;;
9775;SDS011;4927;52.472;13.108;2022-09-20T08:38:32;6.30;;;5.70;;
9775;SDS011;4927;52.472;13.108;2022-09-20T08:43:39;4.50;;;4.20;;
9775;SDS011;4927;52.472;13.108;2022-09-20T08:48:44;5.55;;;5.15;;
9775;SDS011;4927;52.472;13.108;2022-09-20T08:53:51;5.00;;;4.60;;
9775;SDS011;4927;52.472;13.108;2022-09-20T08:58:57;5.10;;;4.70;;
9775;SDS011;4927;52.472;13.108;2022-09-20T09:04:10;5.82;;;5.32;;
9775;SDS011;4927;52.472;13.108;2022-09-20T09:09:14;5.68;;;5.20;;
9775;SDS011;4927;52.472;13.108;2022-09-20T09:14:23;7.20;;;6.15;;
9775;SDS011;4927;52.472;13.108;2022-09-20T09:19:42;5.47;;;5.05;;
9775;SDS011;4927;52.472;13.108;2022-09-20T09:25:05;5.60;;;5.20;;
9775;SDS011;4927;52.472;13.108;2022-09-20T09:30:10;5.30;;;5.00;;
9775;SDS011;4927;52.472;13.108;2022-09-20T09:40:22;4.30;;;4.00;;
9775;SDS011;4927;52.472;13.108;2022-09-20T09:45:31;5.35;;;4.60;;
9775;SDS011;4927;52.472;13.108;2022-09-20T09:50:37;6.15;;;4.60;;
9775;SDS011;4927;52.472;13.108;2022-09-20T09:55:51;5.80;;;4.43;;
9775;SDS011;4927;52.472;13.108;2022-09-20T10:01:11;5.00;;;4.60;;
9775;SDS011;4927;52.472;13.108;2022-09-20T10:06:17;6.82;;;4.30;;
9775;SDS011;4927;52.472;13.108;2022-09-20T10:11:32;3.87;;;3.62;;
9775;SDS011;4927;52.472;13.108;2022-09-20T10:22:26;3.75;;;3.53;;
9775;SDS011;4927;52.472;13.108;2022-09-20T10:27:41;4.50;;;3.40;;
9775;SDS011;4927;52.472;13.108;2022-09-20T10:32:57;3.67;;;3.37;;
9775;SDS011;4927;52.472;13.108;2022-09-20T10:38:11;3.90;;;3.60;;
9775;SDS011;4927;52.472;13.108;2022-09-20T10:43:22;8.10;;;4.30;;
9775;SDS011;4927;52.472;13.108;2022-09-20T10:48:32;4.53;;;4.12;;
9775;SDS011;4927;52.472;13.108;2022-09-20T11:04:45;6.57;;;4.15;;
9775;SDS011;4927;52.472;13.108;2022-09-20T11:09:56;3.80;;;3.40;;
9775;SDS011;4927;52.472;13.108;2022-09-20T11:15:02;3.50;;;3.40;;
9775;SDS011;4927;52.472;13.108;2022-09-20T11:20:14;2.97;;;2.78;;
9775;SDS011;4927;52.472;13.108;2022-09-20T11:30:48;3.30;;;2.97;;
9775;SDS011;4927;52.472;13.108;2022-09-20T11:36:06;3.28;;;3.10;;
9775;SDS011;4927;52.472;13.108;2022-09-20T11:41:29;3.30;;;3.10;;
9775;SDS011;4927;52.472;13.108;2022-09-20T11:46:37;3.12;;;2.87;;
9775;SDS011;4927;52.472;13.108;2022-09-20T11:51:51;2.80;;;2.70;;
9775;SDS011;4927;52.472;13.108;2022-09-20T11:57:11;3.22;;;3.10;;
9775;SDS011;4927;52.472;13.108;2022-09-20T12:02:21;9.50;;;3.30;;
9775;SDS011;4927;52.472;13.108;2022-09-20T12:07:28;3.30;;;3.00;;
9775;SDS011;4927;52.472;13.108;2022-09-20T12:12:36;2.90;;;2.70;;
9775;SDS011;4927;52.472;13.108;2022-09-20T12:18:01;2.55;;;2.35;;
9775;SDS011;4927;52.472;13.108;2022-09-20T12:28:35;2.80;;;2.40;;
9775;SDS011;4927;52.472;13.108;2022-09-20T12:38:59;1.60;;;1.58;;
9775;SDS011;4927;52.472;13.108;2022-09-20T12:49:35;1.80;;;1.70;;
9775;SDS011;4927;52.472;13.108;2022-09-20T12:54:51;4.93;;;1.70;;
9775;SDS011;4927;52.472;13.108;2022-09-20T12:59:57;3.00;;;1.40;;
9775;SDS011;4927;52.472;13.108;2022-09-20T13:05:28;3.10;;;1.37;;
9775;SDS011;4927;52.472;13.108;2022-09-20T13:10:17;1.92;;;0.90;;
9775;SDS011;4927;52.472;13.108;2022-09-20T13:15:21;5.45;;;1.70;;
9775;SDS011;4927;52.472;13.108;2022-09-20T13:20:28;2.50;;;1.30;;
9775;SDS011;4927;52.472;13.108;2022-09-20T13:25:34;1.00;;;1.00;;
9775;SDS011;4927;52.472;13.108;2022-09-20T13:30:40;1.25;;;0.80;;
9775;SDS011;4927;52.472;13.108;2022-09-20T13:35:51;0.90;;;0.90;;
9775;SDS011;4927;52.472;13.108;2022-09-20T13:41:01;0.90;;;0.90;;
9775;SDS011;4927;52.472;13.108;2022-09-20T13:46:23;0.90;;;0.90;;
9775;SDS011;4927;52.472;13.108;2022-09-20T13:51:29;0.90;;;0.80;;
9775;SDS011;4927;52.472;13.108;2022-09-20T13:56:35;2.20;;;0.90;;
9775;SDS011;4927;52.472;13.108;2022-09-20T14:01:43;0.90;;;0.90;;
9775;SDS011;4927;52.472;13.108;2022-09-20T14:06:49;1.40;;;1.40;;
9775;SDS011;4927;52.472;13.108;2022-09-20T14:11:55;1.00;;;0.90;;
9775;SDS011;4927;52.472;13.108;2022-09-20T14:17:03;1.20;;;0.90;;
9775;SDS011;4927;52.472;13.108;2022-09-20T14:22:09;0.90;;;0.90;;
9775;SDS011;4927;52.472;13.108;2022-09-20T14:27:14;1.30;;;1.20;;
9775;SDS011;4927;52.472;13.108;2022-09-20T14:32:24;1.10;;;1.10;;
9775;SDS011;4927;52.472;13.108;2022-09-20T14:37:30;2.90;;;1.90;;
9775;SDS011;4927;52.472;13.108;2022-09-20T14:43:00;1.90;;;1.70;;
9775;SDS011;4927;52.472;13.108;2022-09-20T14:53:30;1.87;;;1.77;;
9775;SDS011;4927;52.472;13.108;2022-09-20T15:03:55;1.70;;;0.90;;
9775;SDS011;4927;52.472;13.108;2022-09-20T15:09:01;1.10;;;0.80;;
9775;SDS011;4927;52.472;13.108;2022-09-20T15:14:07;0.70;;;0.70;;
9775;SDS011;4927;52.472;13.108;2022-09-20T15:19:13;0.70;;;0.70;;
9775;SDS011;4927;52.472;13.108;2022-09-20T15:24:20;0.80;;;0.80;;
9775;SDS011;4927;52.472;13.108;2022-09-20T15:29:24;1.20;;;1.10;;
9775;SDS011;4927;52.472;13.108;2022-09-20T15:34:30;0.70;;;0.70;;
9775;SDS011;4927;52.472;13.108;2022-09-20T15:39:36;0.62;;;0.62;;
9775;SDS011;4927;52.472;13.108;2022-09-20T15:44:43;0.70;;;0.70;;
9775;SDS011;4927;52.472;13.108;2022-09-20T15:49:49;1.80;;;1.70;;
9775;SDS011;4927;52.472;13.108;2022-09-20T15:54:56;0.70;;;0.70;;
9775;SDS011;4927;52.472;13.108;2022-09-20T16:00:02;1.50;;;1.50;;
9775;SDS011;4927;52.472;13.108;2022-09-20T16:05:09;3.00;;;2.90;;
9775;SDS011;4927;52.472;13.108;2022-09-20T16:10:16;1.30;;;1.30;;
9775;SDS011;4927;52.472;13.108;2022-09-20T16:15:23;1.20;;;1.20;;
9775;SDS011;4927;52.472;13.108;2022-09-20T16:20:28;1.70;;;1.70;;
9775;SDS011;4927;52.472;13.108;2022-09-20T16:25:34;1.25;;;1.25;;
9775;SDS011;4927;52.472;13.108;2022-09-20T16:30:40;1.30;;;1.30;;
9775;SDS011;4927;52.472;13.108;2022-09-20T16:35:47;1.10;;;1.00;;
9775;SDS011;4927;52.472;13.108;2022-09-20T16:40:54;3.30;;;0.80;;
9775;SDS011;4927;52.472;13.108;2022-09-20T16:46:01;0.98;;;0.90;;
9775;SDS011;4927;52.472;13.108;2022-09-20T16:51:07;0.70;;;0.70;;
9775;SDS011;4927;52.472;13.108;2022-09-20T16:56:16;0.80;;;0.80;;
9775;SDS011;4927;52.472;13.108;2022-09-20T17:01:20;1.00;;;1.00;;
9775;SDS011;4927;52.472;13.108;2022-09-20T17:06:25;1.00;;;1.00;;
9775;SDS011;4927;52.472;13.108;2022-09-20T17:11:32;1.20;;;1.20;;
9775;SDS011;4927;52.472;13.108;2022-09-20T17:16:39;0.80;;;0.80;;
9775;SDS011;4927;52.472;13.108;2022-09-20T17:21:44;2.20;;;2.20;;
9775;SDS011;4927;52.472;13.108;2022-09-20T17:26:50;3.35;;;3.05;;
9775;SDS011;4927;52.472;13.108;2022-09-20T17:31:56;1.27;;;1.27;;
9775;SDS011;4927;52.472;13.108;2022-09-20T17:37:03;1.27;;;0.90;;
9775;SDS011;4927;52.472;13.108;2022-09-20T17:42:09;0.80;;;0.80;;
9775;SDS011;4927;52.472;13.108;2022-09-20T17:47:16;1.10;;;1.10;;
9775;SDS011;4927;52.472;13.108;2022-09-20T17:52:22;1.77;;;0.80;;
9775;SDS011;4927;52.472;13.108;2022-09-20T17:57:29;1.30;;;1.30;;
9775;SDS011;4927;52.472;13.108;2022-09-20T18:02:35;1.30;;;1.30;;
9775;SDS011;4927;52.472;13.108;2022-09-20T18:07:42;1.70;;;1.70;;
9775;SDS011;4927;52.472;13.108;2022-09-20T18:12:48;1.60;;;0.93;;
9775;SDS011;4927;52.472;13.108;2022-09-20T18:17:55;0.95;;;0.95;;
9775;SDS011;4927;52.472;13.108;2022-09-20T18:23:00;3.12;;;2.92;;
9775;SDS011;4927;52.472;13.108;2022-09-20T18:28:06;3.50;;;1.10;;
9775;SDS011;4927;52.472;13.108;2022-09-20T18:33:11;1.60;;;1.50;;
9775;SDS011;4927;52.472;13.108;2022-09-20T18:38:16;1.60;;;1.50;;
9775;SDS011;4927;52.472;13.108;2022-09-20T18:43:21;1.50;;;1.40;;
9775;SDS011;4927;52.472;13.108;2022-09-20T18:48:32;1.20;;;1.20;;
9775;SDS011;4927;52.472;13.108;2022-09-20T18:53:33;1.40;;;1.30;;
9775;SDS011;4927;52.472;13.108;2022-09-20T18:58:39;2.73;;;2.53;;
9775;SDS011;4927;52.472;13.108;2022-09-20T19:03:52;1.75;;;1.75;;
9775;SDS011;4927;52.472;13.108;2022-09-20T19:09:16;1.07;;;1.07;;
9775;SDS011;4927;52.472;13.108;2022-09-20T19:14:42;1.30;;;1.30;;
9775;SDS011;4927;52.472;13.108;2022-09-20T19:19:45;3.37;;;3.27;;
9775;SDS011;4927;52.472;13.108;2022-09-20T19:25:14;1.57;;;1.57;;
9775;SDS011;4927;52.472;13.108;2022-09-20T19:30:19;1.10;;;1.10;;
9775;SDS011;4927;52.472;13.108;2022-09-20T19:35:24;2.50;;;1.50;;
9775;SDS011;4927;52.472;13.108;2022-09-20T19:40:36;1.23;;;1.20;;
9775;SDS011;4927;52.472;13.108;2022-09-20T19:51:28;1.10;;;1.10;;
9775;SDS011;4927;52.472;13.108;2022-09-20T19:56:42;1.80;;;1.30;;
9775;SDS011;4927;52.472;13.108;2022-09-20T20:01:51;1.37;;;1.30;;
9775;SDS011;4927;52.472;13.108;2022-09-20T20:07:02;1.20;;;1.20;;
9775;SDS011;4927;52.472;13.108;2022-09-20T20:12:11;0.90;;;0.90;;
9775;SDS011;4927;52.472;13.108;2022-09-20T20:17:23;1.20;;;1.20;;
9775;SDS011;4927;52.472;13.108;2022-09-20T20:22:48;1.50;;;1.50;;
9775;SDS011;4927;52.472;13.108;2022-09-20T20:28:02;1.30;;;1.30;;
9775;SDS011;4927;52.472;13.108;2022-09-20T20:33:12;1.50;;;1.40;;
9775;SDS011;4927;52.472;13.108;2022-09-20T20:38:18;1.40;;;1.40;;
9775;SDS011;4927;52.472;13.108;2022-09-20T20:43:23;1.50;;;1.50;;
9775;SDS011;4927;52.472;13.108;2022-09-20T20:48:34;2.00;;;1.53;;
9775;SDS011;4927;52.472;13.108;2022-09-20T20:53:45;1.50;;;1.50;;
9775;SDS011;4927;52.472;13.108;2022-09-20T20:58:51;4.80;;;1.73;;
9775;SDS011;4927;52.472;13.108;2022-09-20T21:03:56;1.80;;;1.70;;
9775;SDS011;4927;52.472;13.108;2022-09-20T21:09:03;1.63;;;1.63;;
9775;SDS011;4927;52.472;13.108;2022-09-20T21:14:09;1.40;;;1.40;;
9775;SDS011;4927;52.472;13.108;2022-09-20T21:19:16;3.50;;;1.40;;
9775;SDS011;4927;52.472;13.108;2022-09-20T21:24:26;1.80;;;1.70;;
9775;SDS011;4927;52.472;13.108;2022-09-20T21:29:33;2.80;;;1.93;;
9775;SDS011;4927;52.472;13.108;2022-09-20T21:34:39;1.90;;;1.80;;
9775;SDS011;4927;52.472;13.108;2022-09-20T21:39:46;2.90;;;1.80;;
9775;SDS011;4927;52.472;13.108;2022-09-20T21:44:56;1.80;;;1.80;;
9775;SDS011;4927;52.472;13.108;2022-09-20T21:50:07;2.00;;;1.90;;
9775;SDS011;4927;52.472;13.108;2022-09-20T21:55:14;3.90;;;2.30;;
9775;SDS011;4927;52.472;13.108;2022-09-20T22:00:24;2.40;;;2.30;;
9775;SDS011;4927;52.472;13.108;2022-09-20T22:05:35;2.40;;;2.40;;
9775;SDS011;4927;52.472;13.108;2022-09-20T22:10:41;2.50;;;2.40;;
9775;SDS011;4927;52.472;13.108;2022-09-20T22:15:48;4.37;;;4.27;;
9775;SDS011;4927;52.472;13.108;2022-09-20T22:21:00;3.10;;;3.00;;
9775;SDS011;4927;52.472;13.108;2022-09-20T22:26:12;3.10;;;2.90;;
9775;SDS011;4927;52.472;13.108;2022-09-20T22:31:19;2.93;;;2.83;;
9775;SDS011;4927;52.472;13.108;2022-09-20T22:36:26;2.77;;;2.57;;
9775;SDS011;4927;52.472;13.108;2022-09-20T22:41:32;2.50;;;2.40;;
9775;SDS011;4927;52.472;13.108;2022-09-20T22:46:42;2.83;;;2.60;;
9775;SDS011;4927;52.472;13.108;2022-09-20T22:51:53;2.80;;;2.70;;
9775;SDS011;4927;52.472;13.108;2022-09-20T22:56:59;3.10;;;3.00;;
9775;SDS011;4927;52.472;13.108;2022-09-20T23:02:05;2.70;;;2.60;;
9775;SDS011;4927;52.472;13.108;2022-09-20T23:07:12;3.00;;;2.90;;
9775;SDS011;4927;52.472;13.108;2022-09-20T23:12:22;2.80;;;2.70;;
9775;SDS011;4927;52.472;13.108;2022-09-20T23:17:32;3.40;;;3.20;;
9775;SDS011;4927;52.472;13.108;2022-09-20T23:22:39;3.93;;;3.63;;
9775;SDS011;4927;52.472;13.108;2022-09-20T23:27:49;3.90;;;3.70;;
9775;SDS011;4927;52.472;13.108;2022-09-20T23:32:59;3.80;;;3.70;;
9775;SDS011;4927;52.472;13.108;2022-09-20T23:38:05;4.00;;;3.90;;
9775;SDS011;4927;52.472;13.108;2022-09-20T23:43:11;3.00;;;2.80;;
9775;SDS011;4927;52.472;13.108;2022-09-20T23:48:18;3.40;;;3.30;;
9775;SDS011;4927;52.472;13.108;2022-09-20T23:53:28;3.60;;;3.30;;
9775;SDS011;4927;52.472;13.108;2022-09-20T23:58:34;3.37;;;3.17;;
